Time;durP1;ratioP1;P1;durP2;ratioP2;P2;SDS_P1;SDS_P2;PMS_P1;PMS_P2;Temp;Humidity;BMP_temperature;BMP_pressure;BME280_temperature;BME280_humidity;BME280_pressure;Samples;Min_cycle;Max_cycle;Signal;HPM_P1;HPM_P2
2021/06/20 00:00:56;;;;;;;1.97;1.00;;;22.10;99.90;;;;;;5052161;28;20570;-75
2021/06/20 00:03:22;;;;;;;1.67;0.73;;;22.10;99.90;;;;;;5068835;28;20205;-77
2021/06/20 00:05:51;;;;;;;2.33;1.10;;;22.10;99.90;;;;;;5065946;28;20621;-76
2021/06/20 00:08:17;;;;;;;1.80;0.70;;;22.00;99.90;;;;;;5065740;28;20624;-77
2021/06/20 00:10:43;;;;;;;1.40;0.70;;;22.10;99.90;;;;;;5056212;28;21125;-76
2021/06/20 00:13:09;;;;;;;2.40;0.93;;;22.10;99.90;;;;;;5056124;28;20636;-75
2021/06/20 00:15:36;;;;;;;4.27;0.90;;;22.10;99.90;;;;;;5039178;28;20570;-76
2021/06/20 00:18:04;;;;;;;2.13;0.90;;;22.00;99.90;;;;;;5022855;28;20200;-76
2021/06/20 00:20:32;;;;;;;2.50;0.97;;;22.00;99.90;;;;;;5056020;28;20567;-77
2021/06/20 00:22:59;;;;;;;2.10;0.90;;;22.00;99.90;;;;;;5039259;28;20617;-76
2021/06/20 00:25:25;;;;;;;1.30;0.80;;;22.00;99.90;;;;;;5055929;28;21144;-76
2021/06/20 00:27:51;;;;;;;1.43;0.80;;;21.90;99.90;;;;;;5038902;28;20609;-76
2021/06/20 00:30:19;;;;;;;1.37;0.70;;;21.90;99.90;;;;;;5055948;28;20912;-76
2021/06/20 00:32:47;;;;;;;2.63;0.80;;;21.90;99.90;;;;;;5056155;28;21180;-76
2021/06/20 00:35:14;;;;;;;2.00;0.73;;;21.90;99.90;;;;;;5077625;28;20573;-76
2021/06/20 00:37:39;;;;;;;3.00;0.80;;;21.90;99.90;;;;;;5055408;28;20613;-76
2021/06/20 00:40:06;;;;;;;1.70;0.77;;;21.80;99.90;;;;;;5073594;28;20764;-76
2021/06/20 00:42:33;;;;;;;2.80;0.80;;;21.80;99.90;;;;;;5073514;28;20740;-77
2021/06/20 00:44:58;;;;;;;1.70;0.90;;;21.80;99.90;;;;;;5073604;28;20899;-75
2021/06/20 00:47:27;;;;;;;2.50;0.73;;;21.90;99.90;;;;;;5054955;28;20567;-77
2021/06/20 00:49:53;;;;;;;1.43;0.87;;;21.90;99.90;;;;;;5055517;28;20574;-77
2021/06/20 00:52:19;;;;;;;1.90;0.87;;;21.90;99.90;;;;;;5073294;28;20653;-76
2021/06/20 00:54:47;;;;;;;2.20;0.83;;;21.90;99.90;;;;;;5073232;28;20208;-76
2021/06/20 00:57:22;;;;;;;1.87;1.00;;;21.90;99.90;;;;;;5072954;28;20200;-76
2021/06/20 00:59:50;;;;;;;1.70;0.90;;;21.90;99.90;;;;;;5055373;28;20570;-77
2021/06/20 01:02:18;;;;;;;1.70;1.10;;;21.90;99.90;;;;;;5073069;28;21000;-77
2021/06/20 01:04:46;;;;;;;2.47;1.30;;;21.90;99.90;;;;;;5038519;28;20930;-77
2021/06/20 01:07:17;;;;;;;1.57;0.80;;;21.90;99.90;;;;;;5055085;28;20942;-76
2021/06/20 01:09:43;;;;;;;1.60;0.90;;;21.90;99.90;;;;;;5055269;28;20657;-76
2021/06/20 01:12:11;;;;;;;2.27;0.73;;;21.90;99.90;;;;;;5040810;28;20610;-76
2021/06/20 01:14:37;;;;;;;2.70;0.90;;;21.90;99.90;;;;;;5038513;28;20602;-76
2021/06/20 01:17:04;;;;;;;1.30;0.80;;;21.90;99.90;;;;;;5037988;28;21219;-76
2021/06/20 01:19:30;;;;;;;1.70;0.73;;;21.90;99.90;;;;;;5054915;28;21153;-77
2021/06/20 01:21:57;;;;;;;1.90;1.10;;;21.90;99.90;;;;;;5054734;28;20599;-77
2021/06/20 01:24:23;;;;;;;2.23;0.80;;;22.00;99.90;;;;;;5038189;28;20578;-77
2021/06/20 01:26:49;;;;;;;2.07;0.97;;;22.00;99.90;;;;;;5037692;28;20567;-77
2021/06/20 01:29:19;;;;;;;3.10;0.80;;;22.00;99.90;;;;;;5054956;28;20574;-76
2021/06/20 01:31:49;;;;;;;2.27;1.17;;;22.00;99.90;;;;;;5021315;28;21165;-76
2021/06/20 01:34:24;;;;;;;1.53;0.80;;;22.00;99.90;;;;;;5023800;28;20589;-76
2021/06/20 01:36:52;;;;;;;2.43;0.93;;;22.00;99.90;;;;;;5054162;28;20611;-75
2021/06/20 01:39:18;;;;;;;3.47;1.20;;;22.00;99.90;;;;;;5021442;28;20609;-76
2021/06/20 01:41:44;;;;;;;1.60;0.80;;;22.10;99.90;;;;;;5054508;28;20626;-76
2021/06/20 01:44:10;;;;;;;2.43;1.43;;;22.10;99.90;;;;;;5054566;28;20168;-75
2021/06/20 01:46:37;;;;;;;2.40;1.10;;;22.10;99.90;;;;;;5037481;28;20647;-75
2021/06/20 01:49:03;;;;;;;3.83;1.10;;;22.00;99.90;;;;;;5056687;28;20909;-76
2021/06/20 01:51:29;;;;;;;3.20;1.33;;;22.00;99.90;;;;;;5054302;28;20571;-76
2021/06/20 01:53:57;;;;;;;1.97;1.27;;;22.00;99.90;;;;;;5054394;28;20674;-77
2021/06/20 01:56:23;;;;;;;2.43;1.10;;;22.10;99.90;;;;;;5020777;28;20194;-75
2021/06/20 01:58:48;;;;;;;2.80;1.10;;;22.00;99.90;;;;;;5053666;28;21011;-76
2021/06/20 02:01:17;;;;;;;3.90;1.80;;;22.00;99.90;;;;;;5053942;28;20169;-76
2021/06/20 02:03:42;;;;;;;4.00;1.83;;;22.00;99.90;;;;;;5071880;28;20203;-76
2021/06/20 02:06:08;;;;;;;3.10;1.40;;;22.10;99.90;;;;;;5053471;28;20570;-76
2021/06/20 02:08:34;;;;;;;5.83;1.63;;;22.00;99.90;;;;;;5037324;28;20172;-75
2021/06/20 02:11:00;;;;;;;4.97;2.00;;;22.00;99.90;;;;;;5054064;28;20164;-75
2021/06/20 02:13:28;;;;;;;6.80;1.90;;;22.00;99.90;;;;;;5037276;28;20200;-76
2021/06/20 02:15:55;;;;;;;8.63;2.00;;;22.00;99.90;;;;;;5036968;28;20571;-76
2021/06/20 02:18:21;;;;;;;6.73;2.63;;;22.00;99.90;;;;;;5053805;28;21012;-77
2021/06/20 02:20:47;;;;;;;5.83;2.37;;;22.00;99.90;;;;;;5037296;28;20570;-76
2021/06/20 02:23:13;;;;;;;6.03;2.47;;;22.00;99.90;;;;;;5038334;28;20666;-76
2021/06/20 02:25:41;;;;;;;5.60;2.00;;;22.00;99.90;;;;;;5057651;28;20559;-75
2021/06/20 02:28:07;;;;;;;6.50;2.10;;;21.90;99.90;;;;;;5053638;28;20575;-76
2021/06/20 02:30:33;;;;;;;2.23;1.50;;;21.90;99.90;;;;;;5037116;28;20574;-76
2021/06/20 02:32:59;;;;;;;5.13;2.00;;;22.00;99.90;;;;;;5053396;28;21179;-75
2021/06/20 02:35:25;;;;;;;5.17;2.60;;;22.00;99.90;;;;;;5053560;28;20567;-75
2021/06/20 02:37:51;;;;;;;4.00;2.47;;;22.00;99.90;;;;;;5020071;28;20731;-77
2021/06/20 02:40:21;;;;;;;3.13;1.97;;;22.00;99.90;;;;;;5036968;28;20677;-77
2021/06/20 02:42:47;;;;;;;3.30;1.60;;;22.00;99.90;;;;;;5071460;28;20590;-76
2021/06/20 02:45:16;;;;;;;3.83;2.00;;;22.10;99.90;;;;;;5053752;28;20554;-76
2021/06/20 02:47:42;;;;;;;8.23;1.80;;;22.10;99.90;;;;;;5071195;28;20563;-77
2021/06/20 02:50:09;;;;;;;7.20;2.23;;;22.20;99.90;;;;;;5036888;28;20620;-75
2021/06/20 02:52:35;;;;;;;3.53;1.90;;;22.20;99.90;;;;;;5068823;28;20188;-76
2021/06/20 02:55:02;;;;;;;12.90;2.50;;;22.30;99.90;;;;;;5044180;28;20591;-76
2021/06/20 02:57:29;;;;;;;4.87;2.17;;;22.30;99.90;;;;;;5059346;28;20626;-78
2021/06/20 02:59:57;;;;;;;5.60;2.13;;;22.40;99.90;;;;;;5044406;28;20688;-76
2021/06/20 03:02:23;;;;;;;5.30;2.23;;;22.40;99.90;;;;;;5070865;28;21212;-76
2021/06/20 03:04:53;;;;;;;6.07;1.53;;;22.40;99.90;;;;;;5030111;28;20586;-75
2021/06/20 03:07:19;;;;;;;4.23;2.47;;;22.50;99.90;;;;;;5062377;28;20589;-76
2021/06/20 03:09:46;;;;;;;3.43;2.03;;;22.50;99.90;;;;;;5071302;28;20629;-77
2021/06/20 03:12:15;;;;;;;5.43;2.20;;;22.60;99.90;;;;;;5055139;28;20693;-76
2021/06/20 03:14:43;;;;;;;5.10;1.80;;;22.70;99.90;;;;;;5057799;28;20562;-76
2021/06/20 03:17:10;;;;;;;6.20;2.20;;;22.80;99.90;;;;;;5056632;28;20669;-76
2021/06/20 03:19:37;;;;;;;3.97;2.60;;;22.80;99.90;;;;;;5040492;28;20570;-76
2021/06/20 03:22:04;;;;;;;5.20;2.80;;;22.90;99.90;;;;;;5040230;28;20609;-76
2021/06/20 03:24:33;;;;;;;4.77;2.30;;;22.90;99.90;;;;;;5057144;28;20631;-76
2021/06/20 03:26:59;;;;;;;7.63;3.60;;;22.90;99.90;;;;;;5056647;28;20593;-76
2021/06/20 03:29:25;;;;;;;6.07;2.87;;;22.90;99.90;;;;;;5056967;28;20675;-77
2021/06/20 03:31:52;;;;;;;3.60;2.50;;;23.00;99.90;;;;;;5074733;28;20631;-76
2021/06/20 03:34:19;;;;;;;3.33;1.80;;;22.90;99.90;;;;;;5074799;28;20972;-76
2021/06/20 03:36:44;;;;;;;4.60;2.50;;;23.00;99.90;;;;;;5076411;28;20559;-76
2021/06/20 03:39:10;;;;;;;5.00;2.00;;;23.00;99.90;;;;;;5058431;28;20704;-76
2021/06/20 03:41:38;;;;;;;4.60;2.00;;;23.00;99.90;;;;;;5056819;28;20172;-75
2021/06/20 03:44:06;;;;;;;2.70;1.50;;;23.00;99.90;;;;;;5074565;28;20573;-76
2021/06/20 03:46:32;;;;;;;2.40;1.43;;;23.00;99.90;;;;;;5039751;28;20566;-75
2021/06/20 03:48:58;;;;;;;2.27;1.63;;;23.00;99.90;;;;;;5056811;28;20951;-75
2021/06/20 03:51:23;;;;;;;3.43;2.27;;;23.10;99.90;;;;;;5056621;28;20578;-76
2021/06/20 03:53:49;;;;;;;2.23;1.30;;;23.10;99.90;;;;;;5074624;28;20168;-76
2021/06/20 03:56:15;;;;;;;2.43;1.53;;;23.20;99.90;;;;;;5056227;28;20172;-77
2021/06/20 03:58:40;;;;;;;4.10;1.80;;;23.20;99.90;;;;;;5074560;28;20196;-77
2021/06/20 04:01:06;;;;;;;3.33;1.70;;;23.30;99.90;;;;;;5056508;28;20264;-76
2021/06/20 04:03:32;;;;;;;2.67;1.50;;;23.20;99.90;;;;;;5046468;28;20278;-80
2021/06/20 04:05:58;;;;;;;2.37;1.10;;;23.30;99.90;;;;;;5044966;28;20513;-80
2021/06/20 04:08:24;;;;;;;2.90;1.40;;;23.20;99.90;;;;;;5073969;28;20202;-81
2021/06/20 04:10:52;;;;;;;4.13;1.80;;;23.20;99.90;;;;;;5074559;28;20773;-79
2021/06/20 04:13:18;;;;;;;2.70;1.27;;;23.10;99.90;;;;;;5077813;28;20202;-80
2021/06/20 04:15:44;;;;;;;3.83;1.60;;;23.10;99.90;;;;;;5076842;28;20598;-80
2021/06/20 04:18:10;;;;;;;3.63;1.50;;;23.00;99.90;;;;;;5055973;28;20204;-79
2021/06/20 04:20:35;;;;;;;2.10;1.63;;;23.00;99.90;;;;;;5073828;28;20243;-80
2021/06/20 04:23:01;;;;;;;2.63;1.80;;;23.00;99.90;;;;;;5038579;28;20214;-80
2021/06/20 04:25:27;;;;;;;3.97;1.13;;;23.00;99.90;;;;;;5073877;28;20164;-81
2021/06/20 04:27:53;;;;;;;2.23;1.37;;;22.90;99.90;;;;;;5073417;28;20681;-80
2021/06/20 04:30:22;;;;;;;3.40;1.40;;;22.90;99.90;;;;;;5073832;28;20569;-80
2021/06/20 04:32:49;;;;;;;2.20;1.40;;;22.90;99.90;;;;;;5073946;28;20599;-79
2021/06/20 04:35:16;;;;;;;2.43;1.40;;;22.90;99.90;;;;;;5055511;28;20562;-79
2021/06/20 04:37:43;;;;;;;3.00;1.33;;;23.00;99.90;;;;;;5055253;28;20709;-80
2021/06/20 04:40:14;;;;;;;2.77;1.10;;;23.00;99.90;;;;;;5055768;28;20566;-79
2021/06/20 04:42:41;;;;;;;2.17;1.37;;;23.10;99.90;;;;;;5074060;28;20648;-79
2021/06/20 04:45:09;;;;;;;1.70;1.20;;;23.10;99.90;;;;;;5055874;28;20571;-79
2021/06/20 04:47:36;;;;;;;3.07;1.37;;;23.20;99.90;;;;;;5073170;28;20663;-79
2021/06/20 04:50:03;;;;;;;2.13;1.20;;;23.20;99.90;;;;;;5075140;28;20571;-77
2021/06/20 04:52:29;;;;;;;3.63;1.37;;;23.30;99.90;;;;;;5038832;28;20638;-80
2021/06/20 04:54:55;;;;;;;2.10;1.17;;;23.40;99.90;;;;;;5058577;28;20605;-79
2021/06/20 04:57:27;;;;;;;2.37;1.50;;;23.50;99.90;;;;;;5076199;28;20610;-80
2021/06/20 05:00:01;;;;;;;4.07;1.90;;;23.50;99.90;;;;;;5057906;28;21098;-79
2021/06/20 05:02:28;;;;;;;5.77;2.80;;;23.60;99.90;;;;;;5039922;28;21243;-79
2021/06/20 05:04:55;;;;;;;2.80;1.30;;;23.80;99.90;;;;;;5073315;28;20563;-79
2021/06/20 05:07:21;;;;;;;2.70;1.10;;;23.90;99.90;;;;;;5038157;28;20591;-79
2021/06/20 05:09:47;;;;;;;2.93;1.30;;;24.00;99.90;;;;;;5055408;28;20567;-78
2021/06/20 05:12:14;;;;;;;1.60;1.00;;;24.10;99.90;;;;;;5038473;28;20598;-78
2021/06/20 05:14:43;;;;;;;3.30;1.50;;;24.30;99.90;;;;;;5073026;28;20605;-79
2021/06/20 05:17:09;;;;;;;2.67;1.20;;;24.50;99.90;;;;;;5072899;28;20621;-79
2021/06/20 05:19:35;;;;;;;1.40;0.80;;;24.70;99.90;;;;;;5074197;28;21144;-78
2021/06/20 05:22:01;;;;;;;2.70;1.43;;;24.90;99.90;;;;;;5056138;28;20717;-78
2021/06/20 05:24:27;;;;;;;1.80;1.00;;;25.10;99.90;;;;;;5055902;28;20597;-79
2021/06/20 05:26:53;;;;;;;1.30;0.90;;;25.20;99.90;;;;;;5060341;28;20652;-79
2021/06/20 05:29:19;;;;;;;2.50;0.90;;;25.30;99.90;;;;;;5059203;28;20247;-79
2021/06/20 05:31:45;;;;;;;1.97;1.20;;;25.40;99.90;;;;;;5058992;28;20630;-78
2021/06/20 05:34:10;;;;;;;2.37;1.30;;;25.40;99.90;;;;;;5056211;28;20161;-79
2021/06/20 05:36:36;;;;;;;6.13;1.10;;;25.50;99.90;;;;;;5072209;28;20203;-79
2021/06/20 05:39:03;;;;;;;1.97;0.77;;;25.60;99.90;;;;;;5074059;28;20179;-79
2021/06/20 05:41:29;;;;;;;1.90;0.90;;;25.80;99.90;;;;;;5077077;28;20169;-80
2021/06/20 05:43:55;;;;;;;1.93;0.90;;;26.00;99.90;;;;;;5076386;28;20574;-80
2021/06/20 05:46:22;;;;;;;1.60;0.90;;;26.30;99.90;;;;;;5055963;28;20636;-81
2021/06/20 05:48:49;;;;;;;3.40;1.50;;;26.80;99.90;;;;;;5076874;28;20172;-79
2021/06/20 05:51:15;;;;;;;1.50;0.80;;;27.20;99.90;;;;;;5045670;28;20571;-79
2021/06/20 05:53:41;;;;;;;1.97;0.90;;;27.70;99.90;;;;;;5068577;28;20636;-79
2021/06/20 05:56:06;;;;;;;1.80;0.80;;;28.50;99.90;;;;;;5084956;28;20558;-78
2021/06/20 05:58:33;;;;;;;1.40;0.80;;;29.40;99.90;;;;;;5063142;28;20203;-79
2021/06/20 06:00:59;;;;;;;1.33;0.90;;;30.30;99.90;;;;;;5068773;28;20165;-79
2021/06/20 06:03:24;;;;;;;2.73;0.70;;;31.30;99.90;;;;;;5085997;28;20718;-79
2021/06/20 06:05:50;;;;;;;2.23;0.80;;;32.20;99.90;;;;;;5079887;28;20165;-78
2021/06/20 06:08:16;;;;;;;2.40;0.83;;;33.10;99.90;;;;;;5066647;28;20577;-79
2021/06/20 06:10:42;;;;;;;3.17;0.73;;;33.80;99.90;;;;;;5090496;28;20162;-78
2021/06/20 06:13:07;;;;;;;1.83;0.70;;;34.60;99.90;;;;;;5066985;28;20225;-78
2021/06/20 06:15:33;;;;;;;1.67;0.70;;;35.40;99.90;;;;;;5059629;28;20186;-79
2021/06/20 06:17:59;;;;;;;1.90;0.90;;;36.10;99.90;;;;;;5076982;28;20192;-80
2021/06/20 06:20:25;;;;;;;1.63;0.80;;;36.70;99.90;;;;;;5053974;28;20164;-80
2021/06/20 06:22:51;;;;;;;1.60;0.70;;;37.30;99.90;;;;;;5071832;28;20184;-79
2021/06/20 06:25:21;;;;;;;1.53;0.70;;;37.80;99.90;;;;;;5053890;28;20613;-79
2021/06/20 06:27:47;;;;;;;1.87;0.70;;;38.40;99.90;;;;;;5057011;28;20581;-79
2021/06/20 06:30:13;;;;;;;3.43;0.80;;;38.80;99.90;;;;;;5058477;28;20575;-79
2021/06/20 06:32:41;;;;;;;2.10;0.67;;;39.30;98.50;;;;;;5054105;28;20606;-79
2021/06/20 06:35:08;;;;;;;1.23;0.50;;;39.70;96.70;;;;;;5053972;28;20570;-80
2021/06/20 06:37:34;;;;;;;2.57;0.80;;;40.10;94.70;;;;;;5072011;28;20729;-79
2021/06/20 06:39:59;;;;;;;2.77;0.80;;;40.40;92.70;;;;;;5039943;28;20987;-79
2021/06/20 06:42:26;;;;;;;2.23;0.70;;;40.70;91.10;;;;;;5071591;28;20611;-80
2021/06/20 06:44:53;;;;;;;2.03;0.60;;;41.10;88.80;;;;;;5053551;28;20172;-79
2021/06/20 06:47:20;;;;;;;1.87;0.70;;;41.30;84.90;;;;;;5052996;28;20571;-81
2021/06/20 06:49:46;;;;;;;2.80;0.70;;;41.50;82.60;;;;;;5053476;28;20613;-78
2021/06/20 06:52:12;;;;;;;1.27;0.60;;;41.60;77.50;;;;;;5071341;28;20626;-79
2021/06/20 06:54:37;;;;;;;1.93;0.90;;;41.60;75.30;;;;;;5053529;28;20573;-79
2021/06/20 06:57:03;;;;;;;1.20;0.60;;;41.80;73.20;;;;;;5070874;28;20199;-79
2021/06/20 06:59:30;;;;;;;4.00;0.60;;;41.80;70.90;;;;;;5053404;28;20164;-79
2021/06/20 07:02:02;;;;;;;1.10;0.60;;;41.90;69.60;;;;;;5053423;28;20196;-79
2021/06/20 07:04:28;;;;;;;2.80;0.70;;;41.90;66.20;;;;;;5053225;28;20566;-80
2021/06/20 07:06:53;;;;;;;1.93;0.77;;;41.80;63.90;;;;;;5071493;28;20562;-81
2021/06/20 07:09:19;;;;;;;1.20;0.50;;;41.80;63.00;;;;;;5053372;28;20164;-81
2021/06/20 07:11:45;;;;;;;1.40;0.60;;;41.70;59.90;;;;;;5071038;28;20204;-80
2021/06/20 07:14:11;;;;;;;1.50;0.80;;;41.60;59.60;;;;;;5053302;28;20554;-80
2021/06/20 07:16:36;;;;;;;1.20;0.50;;;41.70;58.90;;;;;;5057492;28;20207;-81
2021/06/20 07:19:02;;;;;;;1.77;0.73;;;41.80;58.30;;;;;;5053230;28;20219;-80
2021/06/20 07:21:28;;;;;;;1.40;0.60;;;41.90;57.50;;;;;;5036612;28;20171;-79
2021/06/20 07:23:54;;;;;;;2.13;0.60;;;42.00;56.30;;;;;;5071279;28;20169;-80
2021/06/20 07:26:19;;;;;;;3.43;0.60;;;42.00;55.80;;;;;;5052723;28;20198;-81
2021/06/20 07:28:48;;;;;;;1.20;0.50;;;42.20;55.50;;;;;;5071409;28;20504;-77
2021/06/20 07:31:13;;;;;;;1.30;0.70;;;42.30;54.40;;;;;;5053068;28;20172;-76
2021/06/20 07:33:39;;;;;;;1.87;0.50;;;42.40;53.80;;;;;;5036474;28;20605;-75
2021/06/20 07:36:09;;;;;;;1.83;0.60;;;42.50;52.90;;;;;;5070447;28;20172;-76
2021/06/20 07:38:35;;;;;;;1.57;0.70;;;42.50;52.10;;;;;;5052834;28;20281;-77
2021/06/20 07:41:01;;;;;;;1.30;0.60;;;42.30;50.90;;;;;;5072522;28;21125;-82
2021/06/20 07:43:26;;;;;;;1.10;0.60;;;42.00;49.90;;;;;;5052766;28;20180;-80
2021/06/20 07:45:55;;;;;;;1.30;0.60;;;41.60;49.20;;;;;;5052313;28;20168;-79
2021/06/20 07:48:23;;;;;;;1.33;0.63;;;41.00;48.70;;;;;;5036343;28;20209;-82
2021/06/20 07:50:49;;;;;;;1.70;0.70;;;40.80;49.40;;;;;;5071007;28;20558;-81
2021/06/20 07:53:14;;;;;;;1.60;0.67;;;40.70;49.60;;;;;;5069801;28;20714;-80
2021/06/20 07:55:40;;;;;;;1.97;0.80;;;40.80;50.00;;;;;;5045362;28;20179;-81
2021/06/20 07:58:06;;;;;;;1.10;0.60;;;40.90;49.60;;;;;;5051857;28;20664;-82
2021/06/20 08:00:32;;;;;;;1.90;0.57;;;40.90;49.10;;;;;;5073392;28;20167;-83
2021/06/20 08:02:57;;;;;;;1.00;0.50;;;41.20;49.40;;;;;;5044588;28;20549;-82
2021/06/20 08:05:23;;;;;;;1.20;0.67;;;41.30;48.90;;;;;;5048375;28;20173;-81
2021/06/20 08:07:52;;;;;;;2.23;0.73;;;41.60;48.50;;;;;;5051611;28;20199;-82
2021/06/20 08:10:21;;;;;;;1.40;0.60;;;41.70;47.70;;;;;;5073749;28;20601;-82
2021/06/20 08:12:47;;;;;;;2.13;0.67;;;41.80;47.30;;;;;;5073631;28;20564;-83
2021/06/20 08:15:15;;;;;;;1.10;0.57;;;41.90;47.00;;;;;;5055954;28;20574;-82
2021/06/20 08:17:41;;;;;;;2.63;0.70;;;41.90;46.50;;;;;;5073410;28;20629;-81
2021/06/20 08:20:09;;;;;;;1.30;0.90;;;42.10;46.70;;;;;;5056044;28;20570;-82
2021/06/20 08:22:35;;;;;;;1.17;0.50;;;42.20;46.40;;;;;;5056406;28;20626;-87
2021/06/20 08:25:01;;;;;;;1.13;0.53;;;42.40;45.90;;;;;;5088946;28;20586;-85
2021/06/20 08:27:27;;;;;;;1.27;0.50;;;42.40;45.00;;;;;;5056431;28;20636;-83
2021/06/20 08:29:55;;;;;;;1.20;0.57;;;42.30;44.60;;;;;;5053093;28;20210;-84
2021/06/20 08:32:22;;;;;;;1.90;0.63;;;42.30;44.70;;;;;;5068354;28;20602;-85
2021/06/20 08:34:47;;;;;;;1.10;0.53;;;42.20;44.20;;;;;;5079305;28;20202;-87
2021/06/20 08:37:16;;;;;;;1.10;0.60;;;42.10;44.60;;;;;;5039052;28;20634;-84
2021/06/20 08:39:42;;;;;;;1.00;0.50;;;42.40;44.70;;;;;;5073868;28;20168;-87
2021/06/20 08:42:07;;;;;;;1.20;0.60;;;42.60;44.60;;;;;;5056322;28;20619;-87
2021/06/20 08:44:33;;;;;;;1.40;0.50;;;42.90;44.20;;;;;;5039440;28;20173;-86
2021/06/20 08:47:02;;;;;;;1.50;0.60;;;42.90;43.50;;;;;;5054900;28;20187;-87
2021/06/20 08:49:29;;;;;;;1.90;0.50;;;43.00;43.10;;;;;;5073779;28;20559;-86
2021/06/20 08:52:00;;;;;;;1.60;0.50;;;43.10;43.00;;;;;;5056013;28;20597;-87
2021/06/20 08:54:27;;;;;;;1.20;0.50;;;43.20;43.00;;;;;;5056197;28;20625;-87
2021/06/20 08:56:53;;;;;;;2.90;0.63;;;43.40;43.10;;;;;;5073348;28;20561;-88
2021/06/20 08:59:22;;;;;;;1.63;0.80;;;43.60;42.50;;;;;;5055716;28;20624;-87
2021/06/20 09:01:49;;;;;;;1.03;0.50;;;43.70;41.90;;;;;;5056478;28;20634;-87
2021/06/20 09:04:29;;;;;;;1.00;0.50;;;43.80;41.70;;;;;;5074030;28;20654;-83
2021/06/20 09:06:55;;;;;;;1.43;0.50;;;43.80;40.40;;;;;;5073513;28;20665;-85
2021/06/20 09:09:29;;;;;;;1.47;0.60;;;43.50;40.00;;;;;;5038453;28;20567;-87
2021/06/20 09:12:14;;;;;;;1.00;0.40;;;43.30;38.70;;;;;;5072914;28;20605;-83
2021/06/20 09:14:47;;;;;;;1.43;0.50;;;43.10;40.20;;;;;;5072930;28;20559;-83
2021/06/20 09:17:26;;;;;;;1.20;0.40;;;43.00;39.40;;;;;;5054525;28;20571;-83
2021/06/20 09:19:59;;;;;;;1.00;0.40;;;42.90;39.20;;;;;;5073087;28;20712;-83
2021/06/20 09:22:26;;;;;;;1.23;0.63;;;42.90;39.40;;;;;;5054817;28;20748;-85
2021/06/20 09:25:00;;;;;;;2.30;0.53;;;42.90;39.70;;;;;;5054888;28;20566;-85
2021/06/20 09:27:26;;;;;;;1.10;0.60;;;42.60;38.90;;;;;;5054958;28;20614;-85
2021/06/20 09:29:52;;;;;;;1.17;0.70;;;42.10;38.60;;;;;;5073479;28;20559;-85
2021/06/20 09:32:18;;;;;;;1.10;0.50;;;41.60;38.90;;;;;;5048849;28;20628;-85
2021/06/20 09:34:50;;;;;;;1.67;0.53;;;41.20;38.70;;;;;;5047234;28;20176;-85
2021/06/20 09:37:19;;;;;;;1.20;0.53;;;40.90;39.70;;;;;;5070194;28;20586;-84
2021/06/20 09:39:46;;;;;;;1.87;0.60;;;40.80;39.90;;;;;;5045909;28;20624;-84
2021/06/20 09:42:17;;;;;;;1.20;0.60;;;40.60;39.60;;;;;;5056887;28;20972;-84
2021/06/20 09:44:48;;;;;;;1.13;0.57;;;40.70;40.20;;;;;;5038256;28;20697;-83
2021/06/20 09:47:24;;;;;;;1.20;0.60;;;40.70;40.00;;;;;;5072770;28;20602;-82
2021/06/20 09:49:52;;;;;;;1.50;0.60;;;40.70;40.00;;;;;;5073312;28;20562;-82
2021/06/20 09:52:30;;;;;;;1.30;0.60;;;40.90;40.50;;;;;;5073382;28;20598;-83
2021/06/20 09:54:57;;;;;;;1.67;0.70;;;41.00;40.50;;;;;;5073605;28;20578;-85
2021/06/20 09:57:23;;;;;;;1.10;0.70;;;41.10;40.30;;;;;;5055255;28;20629;-85
2021/06/20 09:59:57;;;;;;;1.00;0.53;;;41.30;40.30;;;;;;5072580;28;21071;-86
2021/06/20 10:04:58;;;;;;;1.10;0.57;;;41.40;39.40;;;;;;5070295;28;20665;-85
2021/06/20 10:07:26;;;;;;;1.20;0.70;;;41.50;39.50;;;;;;5073086;28;20622;-86
2021/06/20 10:09:53;;;;;;;1.40;0.60;;;41.80;39.90;;;;;;5056878;28;20931;-85
2021/06/20 10:12:19;;;;;;;1.97;0.50;;;42.10;39.30;;;;;;5077004;28;20555;-86
2021/06/20 10:14:46;;;;;;;1.50;0.53;;;42.40;38.70;;;;;;5075653;28;20605;-88
2021/06/20 10:17:16;;;;;;;1.40;0.70;;;42.60;38.80;;;;;;5056113;28;20582;-86
2021/06/20 10:19:51;;;;;;;1.30;0.57;;;42.90;38.30;;;;;;5055768;28;21230;-86
2021/06/20 10:22:18;;;;;;;2.67;0.60;;;43.20;38.20;;;;;;5056115;28;20639;-85
2021/06/20 10:24:54;;;;;;;1.10;0.57;;;43.20;37.60;;;;;;5074639;28;21159;-84
2021/06/20 10:27:32;;;;;;;1.07;0.57;;;43.00;36.80;;;;;;5055853;28;20691;-85
2021/06/20 10:29:59;;;;;;;1.50;0.57;;;42.70;36.30;;;;;;5054704;28;20983;-85
2021/06/20 10:32:37;;;;;;;1.10;0.60;;;42.20;37.10;;;;;;5072308;28;20575;-85
2021/06/20 10:35:18;;;;;;;1.20;0.53;;;42.00;37.00;;;;;;5054382;28;20986;-85
2021/06/20 10:37:45;;;;;;;1.63;0.60;;;41.90;37.50;;;;;;5053975;28;20586;-85
2021/06/20 10:40:27;;;;;;;1.20;0.50;;;41.50;37.30;;;;;;5054245;28;21158;-85
2021/06/20 10:42:55;;;;;;;1.40;0.60;;;41.00;37.00;;;;;;5055522;28;20618;-86
2021/06/20 10:45:31;;;;;;;2.90;0.60;;;40.60;37.10;;;;;;5072365;28;20583;-84
2021/06/20 10:47:59;;;;;;;1.50;0.50;;;40.30;37.30;;;;;;5037572;28;20708;-85
2021/06/20 10:50:37;;;;;;;1.10;0.50;;;40.20;38.00;;;;;;5072121;28;20596;-85
2021/06/20 10:53:03;;;;;;;1.67;0.60;;;40.20;38.20;;;;;;5054278;28;20625;-85
2021/06/20 10:55:39;;;;;;;1.50;0.60;;;40.20;38.40;;;;;;5055436;28;20558;-86
2021/06/20 10:58:17;;;;;;;3.03;0.77;;;40.10;38.10;;;;;;5057307;28;20574;-86
2021/06/20 11:00:43;;;;;;;1.00;0.50;;;40.10;38.10;;;;;;5071968;28;20591;-86
2021/06/20 11:03:29;;;;;;;1.90;0.80;;;40.20;38.10;;;;;;5054468;28;20618;-87
2021/06/20 11:06:14;;;;;;;2.80;0.60;;;40.00;37.70;;;;;;5071414;28;20591;-87
2021/06/20 11:08:56;;;;;;;2.30;0.60;;;40.10;37.50;;;;;;5054502;28;20938;-86
2021/06/20 11:11:25;;;;;;;2.43;1.50;;;40.00;37.70;;;;;;5054158;28;21149;-86
2021/06/20 11:14:08;;;;;;;3.03;2.57;;;39.80;37.50;;;;;;5039921;28;20613;-87
2021/06/20 11:16:38;;;;;;;1.90;1.50;;;39.70;37.60;;;;;;5053323;28;20605;-86
2021/06/20 11:19:29;;;;;;;2.10;1.10;;;39.70;37.80;;;;;;5038882;28;21141;-86
2021/06/20 11:22:06;;;;;;;1.97;0.70;;;39.60;37.60;;;;;;5037453;28;20574;-86
2021/06/20 11:24:41;;;;;;;1.10;0.60;;;39.60;37.90;;;;;;5059254;28;20594;-86
2021/06/20 11:27:12;;;;;;;1.33;0.70;;;39.60;37.90;;;;;;5069519;28;20589;-86
2021/06/20 11:29:45;;;;;;;1.63;0.63;;;39.40;37.80;;;;;;5071048;28;20608;-86
2021/06/20 11:32:25;;;;;;;1.50;0.70;;;39.10;37.60;;;;;;5047656;28;20585;-86
2021/06/20 11:34:56;;;;;;;3.53;0.70;;;38.70;37.80;;;;;;5042321;28;20566;-85
2021/06/20 11:37:37;;;;;;;1.20;0.70;;;38.20;37.70;;;;;;5042143;28;20591;-86
2021/06/20 11:40:10;;;;;;;1.20;0.50;;;37.80;37.90;;;;;;5058226;28;20575;-86
2021/06/20 11:42:46;;;;;;;1.10;0.53;;;37.20;37.90;;;;;;5075223;28;20580;-86
2021/06/20 11:45:19;;;;;;;1.10;0.50;;;36.70;38.20;;;;;;5058464;28;20638;-86
2021/06/20 11:47:55;;;;;;;1.90;0.70;;;36.30;38.80;;;;;;5057087;28;20635;-86
2021/06/20 11:50:27;;;;;;;2.50;0.60;;;35.90;38.90;;;;;;5075189;28;20576;-86
2021/06/20 11:53:11;;;;;;;2.97;1.37;;;35.50;39.20;;;;;;5057469;28;20596;-86
2021/06/20 11:55:45;;;;;;;2.27;0.80;;;35.30;40.00;;;;;;5058175;28;20603;-86
2021/06/20 11:58:13;;;;;;;2.80;0.87;;;35.10;40.10;;;;;;5057074;28;20952;-86
2021/06/20 12:00:41;;;;;;;2.83;0.70;;;35.00;40.30;;;;;;5057205;28;20581;-86
2021/06/20 12:03:17;;;;;;;2.17;0.60;;;34.90;40.60;;;;;;5040047;28;21062;-86
2021/06/20 12:05:45;;;;;;;3.40;0.53;;;34.80;40.90;;;;;;5056656;28;20591;-86
2021/06/20 12:08:12;;;;;;;1.10;0.60;;;34.70;40.90;;;;;;5057126;28;20622;-86
2021/06/20 12:10:43;;;;;;;2.30;0.57;;;34.60;41.00;;;;;;5040161;28;21128;-86
2021/06/20 12:13:15;;;;;;;1.50;0.60;;;34.50;41.20;;;;;;5074493;28;20618;-86
2021/06/20 12:15:42;;;;;;;2.60;0.57;;;34.50;41.70;;;;;;5056714;28;21264;-87
2021/06/20 12:18:10;;;;;;;1.60;0.60;;;34.50;41.60;;;;;;5057036;28;20571;-87
2021/06/20 12:20:43;;;;;;;1.87;0.63;;;34.40;41.80;;;;;;5056986;28;20942;-86
2021/06/20 12:23:23;;;;;;;1.00;0.50;;;34.30;41.70;;;;;;5057489;28;20640;-87
2021/06/20 12:25:50;;;;;;;1.10;0.50;;;34.30;42.00;;;;;;5039863;28;20573;-86
2021/06/20 12:28:18;;;;;;;1.30;0.60;;;34.20;42.10;;;;;;5074561;28;20616;-86
2021/06/20 12:30:45;;;;;;;1.17;0.60;;;34.10;42.20;;;;;;5074877;28;20929;-85
2021/06/20 12:33:14;;;;;;;1.10;0.60;;;34.10;42.30;;;;;;5075574;28;20688;-86
2021/06/20 12:35:43;;;;;;;1.40;0.60;;;34.10;42.40;;;;;;5056444;28;20556;-86
2021/06/20 12:38:23;;;;;;;1.10;0.50;;;33.90;42.20;;;;;;5040698;28;20573;-86
2021/06/20 12:40:52;;;;;;;1.83;0.60;;;33.80;42.50;;;;;;5040065;28;21149;-85
2021/06/20 12:43:20;;;;;;;1.07;0.50;;;33.60;42.60;;;;;;5056076;28;21102;-86
2021/06/20 12:45:58;;;;;;;1.10;0.60;;;33.50;42.50;;;;;;5039379;28;20640;-85
2021/06/20 12:48:24;;;;;;;1.50;0.70;;;33.40;42.80;;;;;;5073969;28;20609;-85
2021/06/20 12:50:52;;;;;;;1.50;0.80;;;33.40;43.20;;;;;;5039703;28;21154;-85
2021/06/20 12:53:48;;;;;;;1.63;0.90;;;33.40;43.30;;;;;;5056275;28;21189;-86
2021/06/20 12:56:25;;;;;;;1.73;0.60;;;33.50;43.60;;;;;;5057268;28;20592;-86